createdAt,value
2019-01-24T00:00:21.082Z,5.33
2019-01-24T00:02:49.713Z,5.28
2019-01-24T00:05:18.329Z,5.31
2019-01-24T00:07:46.922Z,5.30
2019-01-24T00:10:15.539Z,5.33
2019-01-24T00:12:44.163Z,5.28
2019-01-24T00:15:12.949Z,5.23
2019-01-24T00:17:41.477Z,5.21
2019-01-24T00:20:12.408Z,5.23
2019-01-24T00:22:41.319Z,5.26
2019-01-24T00:25:10.655Z,5.31
2019-01-24T00:27:39.380Z,5.35
2019-01-24T00:30:16.301Z,5.32
2019-01-24T00:32:45.024Z,5.27
2019-01-24T00:35:13.959Z,5.31
2019-01-24T00:37:42.915Z,5.34
2019-01-24T00:40:15.044Z,5.32
2019-01-24T00:42:43.774Z,5.33
2019-01-24T00:45:13.038Z,5.35
2019-01-24T00:47:41.670Z,5.38
2019-01-24T00:50:14.489Z,5.38
2019-01-24T00:52:43.157Z,5.37
2019-01-24T00:55:13.998Z,5.22
2019-01-24T00:57:42.849Z,5.20
2019-01-24T01:00:14.857Z,5.18
2019-01-24T01:02:43.416Z,5.18
2019-01-24T01:05:13.546Z,5.14
2019-01-24T01:07:42.621Z,5.29
2019-01-24T01:10:12.352Z,5.37
2019-01-24T01:12:44.294Z,5.40
2019-01-24T01:15:15.562Z,5.41
2019-01-24T01:17:44.491Z,5.43
2019-01-24T01:20:18.413Z,5.46
2019-01-24T01:22:47.147Z,5.45
2019-01-24T01:25:15.878Z,5.41
2019-01-24T01:27:45.551Z,5.41
2019-01-24T01:30:17.412Z,5.38
2019-01-24T01:32:46.051Z,5.39
2019-01-24T01:35:14.723Z,5.33
2019-01-24T01:37:43.339Z,5.33
2019-01-24T01:40:14.571Z,5.31
2019-01-24T01:42:43.226Z,5.29
2019-01-24T01:45:14.570Z,5.31
2019-01-24T01:47:43.397Z,5.31
2019-01-24T01:50:15.178Z,5.36
2019-01-24T01:52:43.795Z,5.29
2019-01-24T01:55:12.414Z,5.19
2019-01-24T01:57:41.063Z,5.12
2019-01-24T02:00:24.322Z,5.08
2019-01-24T02:02:52.979Z,5.03
2019-01-24T02:05:21.899Z,5.10
2019-01-24T02:07:50.637Z,5.12
2019-01-24T02:10:21.386Z,5.09
2019-01-24T02:12:50.305Z,5.16
2019-01-24T02:15:19.325Z,5.16
2019-01-24T02:17:48.090Z,5.20
2019-01-24T02:20:18.823Z,5.28
2019-01-24T02:22:47.527Z,5.29
2019-01-24T02:25:16.292Z,5.31
2019-01-24T02:27:44.918Z,5.33
2019-01-24T02:30:16.451Z,5.46
2019-01-24T02:32:45.124Z,5.47
2019-01-24T02:35:13.737Z,5.52
2019-01-24T02:37:42.356Z,5.54
2019-01-24T02:40:15.729Z,5.55
2019-01-24T02:42:44.363Z,5.55
2019-01-24T02:45:15.914Z,5.54
2019-01-24T02:47:44.584Z,5.56
2019-01-24T02:50:18.753Z,5.57
2019-01-24T02:52:47.468Z,5.58
2019-01-24T02:55:16.847Z,5.57
2019-01-24T02:57:45.460Z,5.54
2019-01-24T03:00:16.848Z,5.53
2019-01-24T03:02:45.465Z,5.54
2019-01-24T03:05:16.525Z,5.52
2019-01-24T03:07:45.197Z,5.52
2019-01-24T03:10:14.920Z,5.51
2019-01-24T03:12:43.754Z,5.55
2019-01-24T03:15:20.334Z,5.58
2019-01-24T03:17:49.050Z,5.58
2019-01-24T03:20:17.967Z,5.59
2019-01-24T03:22:46.931Z,5.59
2019-01-24T03:25:16.970Z,5.58
2019-01-24T03:27:45.684Z,5.60
2019-01-24T03:30:21.743Z,5.58
2019-01-24T03:32:50.479Z,5.60
2019-01-24T03:35:21.576Z,5.60
2019-01-24T03:37:50.237Z,5.60
2019-01-24T03:40:18.859Z,5.64
2019-01-24T03:42:47.536Z,5.71
2019-01-24T03:45:17.771Z,5.67
2019-01-24T03:47:46.395Z,5.70
2019-01-24T03:50:22.218Z,5.71
2019-01-24T03:52:51.237Z,5.68
2019-01-24T03:55:20.662Z,5.76
2019-01-24T03:57:49.538Z,5.71
2019-01-24T04:00:23.208Z,5.74
2019-01-24T04:02:52.054Z,5.77
2019-01-24T04:05:20.922Z,5.79
2019-01-24T04:07:49.555Z,5.78
2019-01-24T04:10:19.797Z,5.79
2019-01-24T04:12:54.581Z,5.83
2019-01-24T04:15:24.911Z,5.84
2019-01-24T04:17:53.645Z,5.85
2019-01-24T04:20:22.457Z,5.84
2019-01-24T04:22:51.134Z,5.84
2019-01-24T04:25:19.682Z,5.83
2019-01-24T04:27:48.337Z,5.82
2019-01-24T04:30:19.872Z,5.84
2019-01-24T04:32:48.487Z,5.84
2019-01-24T04:35:19.931Z,5.83
2019-01-24T04:37:48.447Z,5.84
2019-01-24T04:40:18.858Z,5.85
2019-01-24T04:42:47.659Z,5.86
2019-01-24T04:45:17.489Z,5.90
2019-01-24T04:47:46.115Z,5.88
2019-01-24T04:50:16.860Z,5.93
2019-01-24T04:52:45.486Z,5.96
2019-01-24T04:55:16.326Z,5.95
2019-01-24T04:57:44.985Z,5.92
2019-01-24T05:00:19.789Z,5.93
2019-01-24T05:02:48.411Z,5.93
2019-01-24T05:05:17.067Z,5.94
2019-01-24T05:07:45.671Z,5.96
2019-01-24T05:10:14.407Z,5.88
2019-01-24T05:12:43.263Z,5.85
2019-01-24T05:15:12.586Z,5.81
2019-01-24T05:17:41.220Z,5.79
2019-01-24T05:20:12.041Z,5.74
2019-01-24T05:22:40.610Z,5.70
2019-01-24T05:25:12.103Z,5.68
2019-01-24T05:27:40.772Z,5.65
2019-01-24T05:30:12.289Z,5.60
2019-01-24T05:32:40.845Z,5.56
2019-01-24T05:35:10.007Z,5.60
2019-01-24T05:37:38.641Z,5.58
2019-01-24T05:40:08.872Z,5.54
2019-01-24T05:42:37.718Z,5.56
2019-01-24T05:45:09.284Z,5.52
2019-01-24T05:47:37.902Z,5.52
2019-01-24T05:50:09.674Z,5.57
2019-01-24T05:52:38.313Z,5.60
2019-01-24T05:55:09.023Z,5.61
2019-01-24T05:57:37.699Z,5.63
2019-01-24T06:00:15.800Z,5.66
2019-01-24T06:02:44.452Z,5.73
2019-01-24T06:05:13.762Z,5.66
2019-01-24T06:07:42.389Z,5.68
2019-01-24T06:10:14.232Z,5.71
2019-01-24T06:12:42.867Z,5.73
2019-01-24T06:15:16.524Z,5.73
2019-01-24T06:17:45.425Z,5.80
2019-01-24T06:20:14.360Z,5.81
2019-01-24T06:22:48.767Z,5.84
2019-01-24T06:25:17.416Z,5.82
2019-01-24T06:27:46.048Z,5.84
2019-01-24T06:30:17.385Z,5.86
2019-01-24T06:32:46.149Z,5.92
2019-01-24T06:35:14.779Z,5.96
2019-01-24T06:37:43.405Z,6.01
2019-01-24T06:40:16.333Z,6.04
2019-01-24T06:42:44.981Z,6.11
2019-01-24T06:45:19.151Z,6.14
2019-01-24T06:47:47.831Z,6.20
2019-01-24T06:50:17.853Z,6.23
2019-01-24T06:52:46.722Z,6.26
2019-01-24T06:55:18.340Z,6.31
2019-01-24T06:57:46.958Z,6.34
2019-01-24T07:00:17.905Z,6.36
2019-01-24T07:02:46.588Z,6.36
2019-01-24T07:05:23.709Z,6.40
2019-01-24T07:07:52.344Z,6.44
2019-01-24T07:10:22.961Z,6.58
2019-01-24T07:12:51.593Z,6.69
2019-01-24T07:15:22.058Z,6.68
2019-01-24T07:17:50.677Z,6.74
2019-01-24T07:20:20.694Z,6.89
2019-01-24T07:22:49.648Z,6.96
2019-01-24T07:25:21.178Z,6.95
2019-01-24T07:27:49.715Z,7.00
2019-01-24T07:30:19.586Z,6.91
2019-01-24T07:32:48.499Z,6.94
2019-01-24T07:35:18.438Z,6.93
2019-01-24T07:37:47.082Z,6.89
2019-01-24T07:40:17.615Z,6.86
2019-01-24T07:42:46.454Z,6.84
2019-01-24T07:45:23.586Z,6.76
2019-01-24T07:47:52.217Z,6.72
2019-01-24T07:50:20.846Z,6.67
2019-01-24T07:52:49.565Z,6.65
2019-01-24T07:55:18.211Z,6.60
2019-01-24T07:57:46.975Z,6.64
2019-01-24T08:00:24.820Z,6.76
2019-01-24T08:02:53.587Z,6.79
2019-01-24T08:05:22.539Z,6.75
2019-01-24T08:07:51.270Z,6.68
2019-01-24T08:10:22.034Z,6.72
2019-01-24T08:12:50.645Z,6.66
2019-01-24T08:15:21.287Z,6.69
2019-01-24T08:17:50.129Z,6.67
2019-01-24T08:20:21.085Z,6.63
2019-01-24T08:22:49.803Z,6.71
2019-01-24T08:25:18.619Z,6.88
2019-01-24T08:27:47.236Z,7.02
2019-01-24T08:30:18.526Z,7.10
2019-01-24T08:32:47.186Z,7.03
2019-01-24T08:35:15.814Z,7.13
2019-01-24T08:37:44.454Z,7.17
2019-01-24T08:40:18.713Z,7.21
2019-01-24T08:42:47.442Z,7.17
2019-01-24T08:45:16.270Z,7.12
2019-01-24T08:47:45.282Z,7.11
2019-01-24T08:50:22.243Z,7.15
2019-01-24T08:52:51.097Z,7.21
2019-01-24T08:55:28.302Z,7.28
2019-01-24T08:57:56.948Z,7.40
2019-01-24T09:00:25.563Z,7.31
2019-01-24T09:02:54.495Z,7.41
2019-01-24T09:05:23.364Z,7.35
2019-01-24T09:07:51.983Z,7.22
2019-01-24T09:10:23.271Z,7.42
2019-01-24T09:12:51.949Z,7.24
2019-01-24T09:15:21.366Z,7.37
2019-01-24T09:17:51.451Z,7.20
2019-01-24T09:20:21.010Z,7.49
2019-01-24T09:22:55.099Z,7.46
2019-01-24T09:25:19.993Z,7.71
2019-01-24T09:27:48.621Z,7.84
2019-01-24T09:30:19.956Z,8.04
2019-01-24T09:32:48.502Z,8.40
2019-01-24T09:35:17.426Z,8.62
2019-01-24T09:37:46.081Z,8.45
2019-01-24T09:40:22.003Z,8.77
2019-01-24T09:42:50.639Z,8.92
2019-01-24T09:45:24.028Z,8.90
2019-01-24T09:48:01.652Z,8.86
2019-01-24T09:50:30.671Z,8.88
2019-01-24T09:52:59.293Z,8.69
2019-01-24T09:55:27.907Z,8.68
2019-01-24T09:57:56.581Z,9.07
2019-01-24T10:00:30.750Z,9.00
2019-01-24T10:02:59.559Z,8.80
2019-01-24T10:05:28.372Z,8.97
2019-01-24T10:07:57.002Z,9.40
2019-01-24T10:10:27.335Z,9.59
2019-01-24T10:12:56.820Z,9.68
2019-01-24T10:15:25.552Z,9.78
2019-01-24T10:17:54.295Z,9.96
2019-01-24T10:20:24.908Z,9.83
2019-01-24T10:22:53.743Z,9.74
2019-01-24T10:25:34.061Z,9.41
2019-01-24T10:28:02.707Z,9.19
2019-01-24T10:30:31.546Z,9.14
2019-01-24T10:33:00.418Z,9.22
2019-01-24T10:35:29.040Z,9.26
2019-01-24T10:37:57.595Z,9.29
2019-01-24T10:40:28.862Z,9.43
2019-01-24T10:42:57.607Z,9.32
2019-01-24T10:45:26.228Z,9.34
2019-01-24T10:47:55.517Z,9.55
2019-01-24T10:50:28.696Z,9.34
2019-01-24T10:52:57.452Z,9.41
2019-01-24T10:55:27.555Z,9.50
2019-01-24T10:57:58.082Z,9.48
2019-01-24T11:00:30.171Z,9.69
2019-01-24T11:02:58.890Z,9.87
2019-01-24T11:05:27.528Z,9.96
2019-01-24T11:07:56.158Z,9.83
2019-01-24T11:10:25.027Z,9.93
2019-01-24T11:12:53.776Z,10.03
2019-01-24T11:15:24.103Z,10.31
2019-01-24T11:17:52.791Z,10.43
2019-01-24T11:20:29.237Z,10.31
2019-01-24T11:22:58.107Z,10.41
2019-01-24T11:25:27.639Z,10.35
2019-01-24T11:27:56.266Z,10.23
2019-01-24T11:30:29.400Z,10.24
2019-01-24T11:32:58.033Z,10.22
2019-01-24T11:35:34.935Z,10.18
2019-01-24T11:38:03.567Z,10.23
2019-01-24T11:40:32.191Z,10.37
2019-01-24T11:43:00.855Z,10.38
2019-01-24T11:45:32.408Z,10.17
2019-01-24T11:48:01.398Z,10.02
2019-01-24T11:50:30.069Z,9.87
2019-01-24T11:52:58.663Z,9.72
2019-01-24T11:55:27.354Z,9.70
2019-01-24T11:57:56.320Z,9.69
2019-01-24T12:00:35.183Z,9.90
2019-01-24T12:03:04.056Z,9.85
2019-01-24T12:05:32.689Z,9.92
2019-01-24T12:08:01.316Z,9.87
2019-01-24T12:10:31.200Z,9.81
2019-01-24T12:12:59.820Z,9.77
2019-01-24T12:15:30.623Z,9.30
2019-01-24T12:17:59.208Z,8.96
2019-01-24T12:20:27.833Z,8.70
2019-01-24T12:22:56.873Z,8.59
2019-01-24T12:25:25.753Z,8.65
2019-01-24T12:27:54.386Z,8.69
2019-01-24T12:30:25.573Z,8.69
2019-01-24T12:32:54.563Z,8.79
2019-01-24T12:35:23.197Z,8.82
2019-01-24T12:37:51.767Z,8.76
2019-01-24T12:40:20.427Z,8.50
2019-01-24T12:42:49.040Z,8.44
2019-01-24T12:45:25.790Z,8.23
2019-01-24T12:47:54.364Z,7.60
2019-01-24T12:50:23.095Z,6.61
2019-01-24T12:52:51.859Z,5.66
2019-01-24T12:55:20.700Z,5.20
2019-01-24T12:57:49.351Z,4.87
2019-01-24T13:00:29.053Z,4.65
2019-01-24T13:02:57.689Z,4.65
2019-01-24T13:05:26.302Z,4.59
2019-01-24T13:07:54.985Z,4.54
2019-01-24T13:10:27.824Z,4.43
2019-01-24T13:12:56.653Z,4.28
2019-01-24T13:15:28.380Z,4.21
2019-01-24T13:17:57.038Z,4.24
2019-01-24T13:20:25.665Z,4.08
2019-01-24T13:22:54.542Z,4.13
2019-01-24T13:25:25.800Z,4.05
2019-01-24T13:27:54.491Z,4.08
2019-01-24T13:30:25.363Z,4.02
2019-01-24T13:32:53.994Z,3.92
2019-01-24T13:35:22.637Z,3.92
2019-01-24T13:37:51.403Z,3.93
2019-01-24T13:40:22.129Z,3.94
2019-01-24T13:42:50.768Z,3.93
2019-01-24T13:45:25.394Z,3.88
2019-01-24T13:47:54.041Z,3.82
2019-01-24T13:50:22.790Z,3.79
2019-01-24T13:52:51.468Z,3.73
2019-01-24T13:55:20.084Z,3.68
2019-01-24T13:57:48.725Z,3.69
2019-01-24T14:00:25.574Z,3.64
2019-01-24T14:02:57.442Z,3.74
2019-01-24T14:05:26.170Z,3.71
2019-01-24T14:07:54.849Z,3.59
2019-01-24T14:10:23.553Z,3.51
2019-01-24T14:12:52.177Z,3.41
2019-01-24T14:15:20.964Z,3.30
2019-01-24T14:17:49.624Z,3.37
2019-01-24T14:20:20.151Z,3.28
2019-01-24T14:22:48.837Z,3.15
2019-01-24T14:25:19.390Z,3.06
2019-01-24T14:27:48.330Z,3.00
2019-01-24T14:30:19.505Z,3.04
2019-01-24T14:32:48.248Z,2.89
2019-01-24T14:35:16.885Z,2.97
2019-01-24T14:37:45.568Z,2.88
2019-01-24T14:40:15.205Z,2.90
2019-01-24T14:42:44.143Z,2.94
2019-01-24T14:45:24.172Z,2.81
2019-01-24T14:47:52.917Z,2.81
2019-01-24T14:50:33.546Z,2.74
2019-01-24T14:53:02.184Z,2.77
2019-01-24T14:55:30.813Z,2.84
2019-01-24T14:57:59.729Z,2.78
2019-01-24T15:00:33.803Z,2.77
2019-01-24T15:03:02.646Z,2.70
2019-01-24T15:05:31.325Z,2.73
2019-01-24T15:07:59.953Z,2.62
2019-01-24T15:10:34.339Z,2.63
2019-01-24T15:13:02.992Z,2.68
2019-01-24T15:15:31.637Z,2.69
2019-01-24T15:18:00.274Z,2.66
2019-01-24T15:20:28.961Z,2.73
2019-01-24T15:22:57.604Z,2.76
2019-01-24T15:25:26.238Z,2.72
2019-01-24T15:27:54.898Z,2.66
2019-01-24T15:30:27.545Z,2.57
2019-01-24T15:32:56.684Z,2.63
2019-01-24T15:35:25.322Z,2.58
2019-01-24T15:37:54.843Z,2.52
2019-01-24T15:40:32.264Z,2.43
2019-01-24T15:43:01.006Z,2.45
2019-01-24T15:45:29.736Z,2.41
2019-01-24T15:47:58.498Z,2.39
2019-01-24T15:50:27.344Z,2.43
2019-01-24T15:52:55.996Z,2.38
2019-01-24T15:55:24.671Z,2.43
2019-01-24T15:57:53.313Z,2.52
2019-01-24T16:00:24.148Z,2.50
2019-01-24T16:02:52.973Z,2.63
2019-01-24T16:05:21.594Z,2.60
2019-01-24T16:07:50.343Z,2.69
2019-01-24T16:10:21.191Z,2.63
2019-01-24T16:12:49.924Z,2.58
2019-01-24T16:15:24.353Z,2.64
2019-01-24T16:17:53.047Z,2.61
2019-01-24T16:20:24.516Z,2.36
2019-01-24T16:22:53.156Z,2.37
2019-01-24T16:25:24.380Z,2.49
2019-01-24T16:27:53.012Z,2.38
2019-01-24T16:30:24.044Z,2.35
2019-01-24T16:32:52.812Z,2.22
2019-01-24T16:35:21.857Z,2.19
2019-01-24T16:37:50.486Z,2.12
2019-01-24T16:40:21.823Z,2.05
2019-01-24T16:42:50.469Z,2.07
2019-01-24T16:45:21.099Z,1.99
2019-01-24T16:47:49.783Z,2.00
2019-01-24T16:50:23.268Z,2.02
2019-01-24T16:52:52.128Z,2.06
2019-01-24T16:55:20.787Z,1.96
2019-01-24T16:57:50.728Z,1.92
2019-01-24T17:00:28.398Z,1.93
2019-01-24T17:02:57.034Z,1.83
2019-01-24T17:05:25.670Z,1.81
2019-01-24T17:07:54.447Z,1.66
2019-01-24T17:10:25.346Z,1.63
2019-01-24T17:12:53.969Z,1.60
2019-01-24T17:15:22.751Z,1.60
2019-01-24T17:17:51.387Z,1.50
2019-01-24T17:20:27.613Z,1.58
2019-01-24T17:22:56.346Z,1.63
2019-01-24T17:25:29.658Z,1.49
2019-01-24T17:27:58.584Z,1.51
2019-01-24T17:30:29.859Z,1.48
2019-01-24T17:32:58.901Z,1.45
2019-01-24T17:35:27.694Z,1.44
2019-01-24T17:37:56.377Z,1.42
2019-01-24T17:40:35.697Z,1.37
2019-01-24T17:43:05.305Z,1.41
2019-01-24T17:45:34.037Z,1.38
2019-01-24T17:48:02.707Z,1.45
2019-01-24T17:50:31.342Z,1.42
2019-01-24T17:52:59.984Z,1.51
2019-01-24T17:55:34.541Z,1.53
2019-01-24T17:58:03.578Z,1.42
2019-01-24T18:00:33.849Z,1.49
2019-01-24T18:03:02.520Z,1.49
2019-01-24T18:05:31.146Z,1.52
2019-01-24T18:07:59.795Z,1.69
2019-01-24T18:10:30.141Z,1.56
2019-01-24T18:12:58.804Z,1.60
2019-01-24T18:15:32.421Z,1.55
2019-01-24T18:18:01.353Z,1.64
2019-01-24T18:20:35.395Z,1.63
2019-01-24T18:23:05.338Z,1.68
2019-01-24T18:25:33.966Z,1.73
2019-01-24T18:28:02.669Z,1.77
2019-01-24T18:30:31.315Z,1.86
2019-01-24T18:33:00.326Z,1.82
2019-01-24T18:35:29.031Z,1.72
2019-01-24T18:37:57.675Z,1.85
2019-01-24T18:40:28.966Z,1.83
2019-01-24T18:43:04.681Z,1.82
2019-01-24T18:45:39.680Z,1.93
2019-01-24T18:48:08.709Z,1.82
2019-01-24T18:50:37.350Z,1.84
2019-01-24T18:53:06.225Z,1.84
2019-01-24T18:55:34.867Z,1.81
2019-01-24T18:58:03.508Z,1.81
2019-01-24T19:00:33.935Z,1.84
2019-01-24T19:03:02.854Z,1.83
2019-01-24T19:05:31.494Z,1.79
2019-01-24T19:08:00.161Z,1.72
2019-01-24T19:10:28.779Z,1.74
2019-01-24T19:12:57.370Z,1.79
2019-01-24T19:15:26.159Z,1.77
2019-01-24T19:17:54.903Z,1.84
2019-01-24T19:20:23.539Z,1.68
2019-01-24T19:22:52.459Z,1.71
2019-01-24T19:25:21.960Z,1.80
2019-01-24T19:27:50.905Z,1.78
2019-01-24T19:30:24.870Z,1.71
2019-01-24T19:32:54.093Z,1.70
2019-01-24T19:35:22.818Z,1.73
2019-01-24T19:37:51.595Z,1.68
2019-01-24T19:40:22.906Z,1.77
2019-01-24T19:42:51.641Z,1.63
2019-01-24T19:45:22.367Z,1.61
2019-01-24T19:47:51.000Z,1.57
2019-01-24T19:50:21.831Z,1.62
2019-01-24T19:52:50.672Z,1.61
2019-01-24T19:55:19.300Z,1.55
2019-01-24T19:57:48.119Z,1.58
2019-01-24T20:00:18.850Z,1.59
2019-01-24T20:02:47.658Z,1.66
2019-01-24T20:05:17.942Z,1.54
2019-01-24T20:07:46.778Z,1.47
2019-01-24T20:10:28.922Z,1.59
2019-01-24T20:12:57.763Z,1.60
2019-01-24T20:15:31.633Z,1.52
2019-01-24T20:18:00.299Z,1.49
2019-01-24T20:20:29.642Z,1.53
2019-01-24T20:22:58.266Z,1.44
2019-01-24T20:25:29.195Z,1.58
2019-01-24T20:27:57.884Z,1.55
2019-01-24T20:30:31.477Z,1.50
2019-01-24T20:33:01.208Z,1.45
2019-01-24T20:35:35.752Z,1.55
2019-01-24T20:38:05.012Z,1.55
2019-01-24T20:40:33.583Z,1.68
2019-01-24T20:43:02.296Z,1.64
2019-01-24T20:45:30.952Z,1.71
2019-01-24T20:47:59.573Z,1.73
2019-01-24T20:50:28.220Z,1.75
2019-01-24T20:52:56.891Z,1.67
2019-01-24T20:55:25.531Z,1.63
2019-01-24T20:57:54.160Z,1.72
2019-01-24T21:00:24.326Z,1.74
2019-01-24T21:02:53.856Z,1.71
2019-01-24T21:05:23.707Z,1.71
2019-01-24T21:07:52.760Z,1.66
2019-01-24T21:10:29.074Z,1.72
2019-01-24T21:12:57.734Z,1.75
2019-01-24T21:15:26.474Z,1.84
2019-01-24T21:17:55.098Z,1.80
2019-01-24T21:20:28.740Z,1.83
2019-01-24T21:22:57.574Z,1.85
2019-01-24T21:25:26.611Z,1.77
2019-01-24T21:27:55.215Z,1.76
2019-01-24T21:30:29.239Z,1.76
2019-01-24T21:32:57.864Z,1.76
2019-01-24T21:35:26.733Z,1.71
2019-01-24T21:37:58.439Z,1.68
2019-01-24T21:40:27.258Z,1.73
2019-01-24T21:42:55.940Z,1.84
2019-01-24T21:45:30.060Z,1.88
2019-01-24T21:47:58.696Z,1.89
2019-01-24T21:50:29.375Z,1.94
2019-01-24T21:52:58.020Z,1.94
2019-01-24T21:55:26.760Z,1.89
2019-01-24T21:57:55.876Z,1.92
2019-01-24T22:00:26.803Z,2.04
2019-01-24T22:02:55.545Z,1.98
2019-01-24T22:05:24.614Z,1.98
2019-01-24T22:07:53.337Z,1.92
2019-01-24T22:10:24.887Z,1.91
2019-01-24T22:12:54.061Z,2.08
2019-01-24T22:15:35.096Z,2.05
2019-01-24T22:18:04.262Z,1.92
2019-01-24T22:20:32.824Z,1.82
2019-01-24T22:23:01.450Z,1.67
2019-01-24T22:25:32.839Z,1.63
2019-01-24T22:28:01.668Z,1.57
2019-01-24T22:30:37.594Z,1.62
2019-01-24T22:33:07.012Z,1.65
2019-01-24T22:35:35.841Z,1.65
2019-01-24T22:38:05.705Z,1.74
2019-01-24T22:40:34.336Z,1.72
2019-01-24T22:43:02.964Z,1.66
2019-01-24T22:45:31.546Z,1.68
2019-01-24T22:48:00.168Z,1.72
2019-01-24T22:50:28.808Z,1.66
2019-01-24T22:52:57.472Z,1.58
2019-01-24T22:55:26.097Z,1.54
2019-01-24T22:57:54.722Z,1.62
2019-01-24T23:00:54.454Z,1.54
2019-01-24T23:03:32.189Z,1.47
2019-01-24T23:06:01.004Z,1.55
2019-01-24T23:08:29.698Z,1.60
2019-01-24T23:10:58.287Z,1.56
2019-01-24T23:13:26.960Z,1.69
2019-01-24T23:15:55.599Z,1.55
2019-01-24T23:18:24.231Z,1.46
2019-01-24T23:20:52.911Z,1.63
2019-01-24T23:23:21.483Z,1.69
2019-01-24T23:25:50.126Z,1.56
2019-01-24T23:28:18.768Z,1.44
2019-01-24T23:30:47.402Z,1.42
2019-01-24T23:33:15.997Z,1.30
2019-01-24T23:35:44.632Z,1.43
2019-01-24T23:38:13.276Z,1.43
2019-01-24T23:40:41.873Z,1.47
2019-01-24T23:43:10.621Z,1.42
2019-01-24T23:45:39.258Z,1.54
2019-01-24T23:48:08.083Z,1.68
2019-01-24T23:50:36.730Z,1.74
2019-01-24T23:53:05.353Z,1.75
2019-01-24T23:55:34.027Z,1.64
2019-01-24T23:58:02.668Z,1.68
